sensor_id;sensor_type;location;lat;lon;timestamp;temperature;humidity
7576;DHT22;3829;50.798;4.358;2023-04-01T00:00:29;9.70;99.90
7576;DHT22;3829;50.798;4.358;2023-04-01T00:02:55;9.60;99.90
7576;DHT22;3829;50.798;4.358;2023-04-01T00:05:21;9.60;99.90
7576;DHT22;3829;50.798;4.358;2023-04-01T00:07:46;9.60;99.90
7576;DHT22;3829;50.798;4.358;2023-04-01T00:10:15;9.70;99.90
7576;DHT22;3829;50.798;4.358;2023-04-01T00:12:41;9.70;99.90
7576;DHT22;3829;50.798;4.358;2023-04-01T00:15:08;9.70;99.90
7576;DHT22;3829;50.798;4.358;2023-04-01T00:17:34;9.60;99.90
7576;DHT22;3829;50.798;4.358;2023-04-01T00:20:00;9.70;99.90
7576;DHT22;3829;50.798;4.358;2023-04-01T00:22:26;9.60;99.90
7576;DHT22;3829;50.798;4.358;2023-04-01T00:24:53;9.60;99.90
7576;DHT22;3829;50.798;4.358;2023-04-01T00:27:19;9.60;99.90
7576;DHT22;3829;50.798;4.358;2023-04-01T00:29:46;9.60;99.90
7576;DHT22;3829;50.798;4.358;2023-04-01T00:32:14;9.60;99.90
7576;DHT22;3829;50.798;4.358;2023-04-01T00:34:40;9.60;99.90
7576;DHT22;3829;50.798;4.358;2023-04-01T00:37:07;9.60;99.90
7576;DHT22;3829;50.798;4.358;2023-04-01T00:39:34;9.60;99.90
7576;DHT22;3829;50.798;4.358;2023-04-01T00:42:01;9.60;99.90
7576;DHT22;3829;50.798;4.358;2023-04-01T00:44:30;9.60;99.90
7576;DHT22;3829;50.798;4.358;2023-04-01T00:46:57;9.60;99.90
7576;DHT22;3829;50.798;4.358;2023-04-01T00:49:27;9.60;99.90
7576;DHT22;3829;50.798;4.358;2023-04-01T00:51:55;9.60;99.90
7576;DHT22;3829;50.798;4.358;2023-04-01T00:54:24;9.60;99.90
7576;DHT22;3829;50.798;4.358;2023-04-01T00:57:04;9.60;99.90
7576;DHT22;3829;50.798;4.358;2023-04-01T00:59:41;9.60;99.90
7576;DHT22;3829;50.798;4.358;2023-04-01T01:02:11;9.60;99.90
7576;DHT22;3829;50.798;4.358;2023-04-01T01:04:37;9.60;99.90
7576;DHT22;3829;50.798;4.358;2023-04-01T01:17:50;9.60;99.90
7576;DHT22;3829;50.798;4.358;2023-04-01T01:20:37;9.60;99.90
7576;DHT22;3829;50.798;4.358;2023-04-01T01:32:03;9.60;99.90
7576;DHT22;3829;50.798;4.358;2023-04-01T01:34:54;9.60;99.90
7576;DHT22;3829;50.798;4.358;2023-04-01T01:37:24;9.60;99.90
7576;DHT22;3829;50.798;4.358;2023-04-01T01:39:55;9.60;99.90
7576;DHT22;3829;50.798;4.358;2023-04-01T01:42:24;9.60;99.90
7576;DHT22;3829;50.798;4.358;2023-04-01T01:44:52;9.60;99.90
7576;DHT22;3829;50.798;4.358;2023-04-01T01:47:19;9.60;99.90
7576;DHT22;3829;50.798;4.358;2023-04-01T01:49:46;9.60;99.90
7576;DHT22;3829;50.798;4.358;2023-04-01T01:52:13;9.60;99.90
7576;DHT22;3829;50.798;4.358;2023-04-01T01:54:53;9.60;99.90
7576;DHT22;3829;50.798;4.358;2023-04-01T01:57:23;9.60;99.90
7576;DHT22;3829;50.798;4.358;2023-04-01T01:59:49;9.60;99.90
7576;DHT22;3829;50.798;4.358;2023-04-01T02:02:18;9.60;99.90
7576;DHT22;3829;50.798;4.358;2023-04-01T02:04:44;9.70;99.90
7576;DHT22;3829;50.798;4.358;2023-04-01T02:07:15;9.70;99.90
7576;DHT22;3829;50.798;4.358;2023-04-01T02:09:43;9.60;99.90
7576;DHT22;3829;50.798;4.358;2023-04-01T02:12:11;9.60;99.90
7576;DHT22;3829;50.798;4.358;2023-04-01T02:17:14;9.60;99.90
7576;DHT22;3829;50.798;4.358;2023-04-01T02:19:54;9.60;99.90
7576;DHT22;3829;50.798;4.358;2023-04-01T02:22:28;9.60;99.90
7576;DHT22;3829;50.798;4.358;2023-04-01T02:24:57;9.60;99.90
7576;DHT22;3829;50.798;4.358;2023-04-01T02:27:24;9.70;99.90
7576;DHT22;3829;50.798;4.358;2023-04-01T02:29:51;9.60;99.90
7576;DHT22;3829;50.798;4.358;2023-04-01T02:32:18;9.50;99.90
7576;DHT22;3829;50.798;4.358;2023-04-01T02:34:45;9.60;99.90
7576;DHT22;3829;50.798;4.358;2023-04-01T02:37:11;9.60;99.90
7576;DHT22;3829;50.798;4.358;2023-04-01T02:39:37;9.50;99.90
7576;DHT22;3829;50.798;4.358;2023-04-01T02:42:03;9.40;99.90
7576;DHT22;3829;50.798;4.358;2023-04-01T02:44:29;9.40;99.90
7576;DHT22;3829;50.798;4.358;2023-04-01T02:46:54;9.40;99.90
7576;DHT22;3829;50.798;4.358;2023-04-01T02:49:20;9.30;99.90
7576;DHT22;3829;50.798;4.358;2023-04-01T02:51:45;9.30;99.90
7576;DHT22;3829;50.798;4.358;2023-04-01T02:54:11;9.30;99.90
7576;DHT22;3829;50.798;4.358;2023-04-01T02:56:37;9.40;99.90
7576;DHT22;3829;50.798;4.358;2023-04-01T02:59:02;9.30;99.90
7576;DHT22;3829;50.798;4.358;2023-04-01T03:01:28;9.30;99.90
7576;DHT22;3829;50.798;4.358;2023-04-01T03:03:54;9.40;99.90
7576;DHT22;3829;50.798;4.358;2023-04-01T03:06:19;9.40;99.90
7576;DHT22;3829;50.798;4.358;2023-04-01T03:08:45;9.40;99.90
7576;DHT22;3829;50.798;4.358;2023-04-01T03:11:12;9.40;99.90
7576;DHT22;3829;50.798;4.358;2023-04-01T03:13:37;9.40;99.90
7576;DHT22;3829;50.798;4.358;2023-04-01T03:16:03;9.40;99.90
7576;DHT22;3829;50.798;4.358;2023-04-01T03:18:29;9.40;99.90
7576;DHT22;3829;50.798;4.358;2023-04-01T03:20:55;9.50;99.90
7576;DHT22;3829;50.798;4.358;2023-04-01T03:23:20;9.50;99.90
7576;DHT22;3829;50.798;4.358;2023-04-01T03:25:46;9.50;99.90
7576;DHT22;3829;50.798;4.358;2023-04-01T03:28:12;9.50;99.90
7576;DHT22;3829;50.798;4.358;2023-04-01T03:30:38;9.50;99.90
7576;DHT22;3829;50.798;4.358;2023-04-01T03:33:04;9.40;99.90
7576;DHT22;3829;50.798;4.358;2023-04-01T03:35:30;9.40;99.90
7576;DHT22;3829;50.798;4.358;2023-04-01T03:37:55;9.30;99.90
7576;DHT22;3829;50.798;4.358;2023-04-01T03:40:22;9.30;99.90
7576;DHT22;3829;50.798;4.358;2023-04-01T03:42:47;9.30;99.90
7576;DHT22;3829;50.798;4.358;2023-04-01T03:45:13;9.20;99.90
7576;DHT22;3829;50.798;4.358;2023-04-01T03:47:39;9.30;99.90
7576;DHT22;3829;50.798;4.358;2023-04-01T03:50:06;9.20;99.90
7576;DHT22;3829;50.798;4.358;2023-04-01T03:52:33;9.20;99.90
7576;DHT22;3829;50.798;4.358;2023-04-01T03:54:58;9.20;99.90
7576;DHT22;3829;50.798;4.358;2023-04-01T03:57:24;9.20;99.90
7576;DHT22;3829;50.798;4.358;2023-04-01T03:59:50;9.20;99.90
7576;DHT22;3829;50.798;4.358;2023-04-01T04:02:15;9.20;99.90
7576;DHT22;3829;50.798;4.358;2023-04-01T04:04:41;9.20;99.90
7576;DHT22;3829;50.798;4.358;2023-04-01T04:07:07;9.30;99.90
7576;DHT22;3829;50.798;4.358;2023-04-01T04:09:32;9.30;99.90
7576;DHT22;3829;50.798;4.358;2023-04-01T04:11:59;9.20;99.90
7576;DHT22;3829;50.798;4.358;2023-04-01T04:14:25;9.20;99.90
7576;DHT22;3829;50.798;4.358;2023-04-01T04:16:51;9.20;99.90
7576;DHT22;3829;50.798;4.358;2023-04-01T04:19:17;9.20;99.90
7576;DHT22;3829;50.798;4.358;2023-04-01T04:21:43;9.30;99.90
7576;DHT22;3829;50.798;4.358;2023-04-01T04:24:08;9.20;99.90
7576;DHT22;3829;50.798;4.358;2023-04-01T04:26:34;9.20;99.90
7576;DHT22;3829;50.798;4.358;2023-04-01T04:29:00;9.20;99.90
7576;DHT22;3829;50.798;4.358;2023-04-01T04:31:26;9.30;99.90
7576;DHT22;3829;50.798;4.358;2023-04-01T04:33:52;9.30;99.90
7576;DHT22;3829;50.798;4.358;2023-04-01T04:36:18;9.20;99.90
7576;DHT22;3829;50.798;4.358;2023-04-01T04:38:44;9.30;99.90
7576;DHT22;3829;50.798;4.358;2023-04-01T04:41:14;9.20;99.90
7576;DHT22;3829;50.798;4.358;2023-04-01T04:43:41;9.20;99.90
7576;DHT22;3829;50.798;4.358;2023-04-01T04:46:08;9.20;99.90
7576;DHT22;3829;50.798;4.358;2023-04-01T04:48:34;9.20;99.90
7576;DHT22;3829;50.798;4.358;2023-04-01T04:51:00;9.20;99.90
7576;DHT22;3829;50.798;4.358;2023-04-01T04:53:26;9.20;99.90
7576;DHT22;3829;50.798;4.358;2023-04-01T04:55:52;9.10;99.90
7576;DHT22;3829;50.798;4.358;2023-04-01T04:58:18;9.20;99.90
7576;DHT22;3829;50.798;4.358;2023-04-01T05:00:44;9.20;99.90
7576;DHT22;3829;50.798;4.358;2023-04-01T05:03:10;9.20;99.90
7576;DHT22;3829;50.798;4.358;2023-04-01T05:05:36;9.20;99.90
7576;DHT22;3829;50.798;4.358;2023-04-01T05:08:02;9.20;99.90
7576;DHT22;3829;50.798;4.358;2023-04-01T05:10:28;9.30;99.90
7576;DHT22;3829;50.798;4.358;2023-04-01T05:12:54;9.20;99.90
7576;DHT22;3829;50.798;4.358;2023-04-01T05:15:20;9.20;99.90
7576;DHT22;3829;50.798;4.358;2023-04-01T05:17:45;9.20;99.90
7576;DHT22;3829;50.798;4.358;2023-04-01T05:20:12;9.20;99.90
7576;DHT22;3829;50.798;4.358;2023-04-01T05:22:38;9.10;99.90
7576;DHT22;3829;50.798;4.358;2023-04-01T05:25:04;9.10;99.90
7576;DHT22;3829;50.798;4.358;2023-04-01T05:27:30;9.10;99.90
7576;DHT22;3829;50.798;4.358;2023-04-01T05:29:57;9.10;99.90
7576;DHT22;3829;50.798;4.358;2023-04-01T05:32:22;9.10;99.90
7576;DHT22;3829;50.798;4.358;2023-04-01T05:34:51;9.20;99.90
7576;DHT22;3829;50.798;4.358;2023-04-01T05:37:17;9.10;99.90
7576;DHT22;3829;50.798;4.358;2023-04-01T05:39:42;9.10;99.90
7576;DHT22;3829;50.798;4.358;2023-04-01T05:42:08;9.20;99.90
7576;DHT22;3829;50.798;4.358;2023-04-01T05:44:34;9.20;99.90
7576;DHT22;3829;50.798;4.358;2023-04-01T05:47:01;9.10;99.90
7576;DHT22;3829;50.798;4.358;2023-04-01T05:49:26;9.20;99.90
7576;DHT22;3829;50.798;4.358;2023-04-01T05:51:52;9.20;99.90
7576;DHT22;3829;50.798;4.358;2023-04-01T05:54:18;9.10;99.90
7576;DHT22;3829;50.798;4.358;2023-04-01T05:56:43;9.20;99.90
7576;DHT22;3829;50.798;4.358;2023-04-01T05:59:11;9.10;99.90
7576;DHT22;3829;50.798;4.358;2023-04-01T06:01:37;9.10;99.90
7576;DHT22;3829;50.798;4.358;2023-04-01T06:04:02;9.10;99.90
7576;DHT22;3829;50.798;4.358;2023-04-01T06:06:29;9.10;99.90
7576;DHT22;3829;50.798;4.358;2023-04-01T06:08:58;9.10;99.90
7576;DHT22;3829;50.798;4.358;2023-04-01T06:12:00;9.10;99.90
7576;DHT22;3829;50.798;4.358;2023-04-01T06:20:33;9.00;99.90
7576;DHT22;3829;50.798;4.358;2023-04-01T06:52:24;9.10;99.90
7576;DHT22;3829;50.798;4.358;2023-04-01T06:54:56;9.10;99.90
7576;DHT22;3829;50.798;4.358;2023-04-01T06:57:45;9.10;99.90
7576;DHT22;3829;50.798;4.358;2023-04-01T07:00:16;9.10;99.90
7576;DHT22;3829;50.798;4.358;2023-04-01T07:02:49;9.10;99.90
7576;DHT22;3829;50.798;4.358;2023-04-01T07:05:19;9.10;99.90
7576;DHT22;3829;50.798;4.358;2023-04-01T07:07:49;9.10;99.90
7576;DHT22;3829;50.798;4.358;2023-04-01T07:10:23;9.10;99.90
7576;DHT22;3829;50.798;4.358;2023-04-01T07:12:55;9.10;99.90
7576;DHT22;3829;50.798;4.358;2023-04-01T07:15:35;9.20;99.90
7576;DHT22;3829;50.798;4.358;2023-04-01T07:18:16;9.20;99.90
7576;DHT22;3829;50.798;4.358;2023-04-01T07:20:43;9.20;99.90
7576;DHT22;3829;50.798;4.358;2023-04-01T07:23:23;9.20;99.90
7576;DHT22;3829;50.798;4.358;2023-04-01T07:25:58;9.20;99.90
7576;DHT22;3829;50.798;4.358;2023-04-01T07:28:30;9.20;99.90
7576;DHT22;3829;50.798;4.358;2023-04-01T07:36:12;9.20;99.90
7576;DHT22;3829;50.798;4.358;2023-04-01T07:52:56;9.30;99.90
7576;DHT22;3829;50.798;4.358;2023-04-01T07:55:39;9.30;99.90
7576;DHT22;3829;50.798;4.358;2023-04-01T08:06:32;9.30;99.90
7576;DHT22;3829;50.798;4.358;2023-04-01T08:11:31;9.40;99.90
7576;DHT22;3829;50.798;4.358;2023-04-01T08:17:05;9.40;99.90
7576;DHT22;3829;50.798;4.358;2023-04-01T08:22:28;9.40;99.90
7576;DHT22;3829;50.798;4.358;2023-04-01T08:24:57;9.50;99.90
7576;DHT22;3829;50.798;4.358;2023-04-01T08:32:50;9.50;99.90
7576;DHT22;3829;50.798;4.358;2023-04-01T08:38:09;9.60;99.90
7576;DHT22;3829;50.798;4.358;2023-04-01T08:46:47;9.60;99.90
7576;DHT22;3829;50.798;4.358;2023-04-01T09:00:47;9.50;99.90
7576;DHT22;3829;50.798;4.358;2023-04-01T09:14:07;9.40;99.90
7576;DHT22;3829;50.798;4.358;2023-04-01T09:16:58;9.40;99.90
7576;DHT22;3829;50.798;4.358;2023-04-01T09:44:57;9.80;99.90
7576;DHT22;3829;50.798;4.358;2023-04-01T10:07:50;10.10;99.90
7576;DHT22;3829;50.798;4.358;2023-04-01T10:21:06;10.80;99.90
7576;DHT22;3829;50.798;4.358;2023-04-01T10:24:11;10.80;99.90
7576;DHT22;3829;50.798;4.358;2023-04-01T10:27:08;10.90;99.90
7576;DHT22;3829;50.798;4.358;2023-04-01T10:32:27;10.60;99.90
7576;DHT22;3829;50.798;4.358;2023-04-01T10:35:10;10.40;99.90
7576;DHT22;3829;50.798;4.358;2023-04-01T10:38:13;10.40;99.90
7576;DHT22;3829;50.798;4.358;2023-04-01T10:49:24;10.40;99.90
7576;DHT22;3829;50.798;4.358;2023-04-01T11:00:18;10.10;99.90
7576;DHT22;3829;50.798;4.358;2023-04-01T11:23:14;10.20;99.90
7576;DHT22;3829;50.798;4.358;2023-04-01T11:33:54;10.70;99.90
7576;DHT22;3829;50.798;4.358;2023-04-01T11:36:34;10.50;99.90
7576;DHT22;3829;50.798;4.358;2023-04-01T11:39:14;10.40;99.90
7576;DHT22;3829;50.798;4.358;2023-04-01T11:53:21;10.50;99.90
7576;DHT22;3829;50.798;4.358;2023-04-01T11:58:59;10.40;99.90
7576;DHT22;3829;50.798;4.358;2023-04-01T12:09:24;10.70;99.90
7576;DHT22;3829;50.798;4.358;2023-04-01T12:14:56;10.20;99.90
7576;DHT22;3829;50.798;4.358;2023-04-01T12:17:51;10.20;99.90
7576;DHT22;3829;50.798;4.358;2023-04-01T12:20:43;10.20;99.90
7576;DHT22;3829;50.798;4.358;2023-04-01T12:35:01;9.90;99.90
7576;DHT22;3829;50.798;4.358;2023-04-01T12:37:52;10.10;99.90
7576;DHT22;3829;50.798;4.358;2023-04-01T12:40:40;10.10;99.90
7576;DHT22;3829;50.798;4.358;2023-04-01T12:49:12;10.00;99.90
7576;DHT22;3829;50.798;4.358;2023-04-01T12:52:00;9.80;99.90
7576;DHT22;3829;50.798;4.358;2023-04-01T13:13:57;9.80;99.90
7576;DHT22;3829;50.798;4.358;2023-04-01T13:16:31;9.90;99.90
7576;DHT22;3829;50.798;4.358;2023-04-01T13:26:56;10.00;99.90
7576;DHT22;3829;50.798;4.358;2023-04-01T13:34:52;9.60;99.90
7576;DHT22;3829;50.798;4.358;2023-04-01T13:37:32;9.70;99.90
7576;DHT22;3829;50.798;4.358;2023-04-01T13:42:36;9.60;99.90
7576;DHT22;3829;50.798;4.358;2023-04-01T13:45:16;9.80;99.90
7576;DHT22;3829;50.798;4.358;2023-04-01T13:48:11;9.70;99.90
7576;DHT22;3829;50.798;4.358;2023-04-01T13:53:20;9.70;99.90
7576;DHT22;3829;50.798;4.358;2023-04-01T13:55:54;9.60;99.90
7576;DHT22;3829;50.798;4.358;2023-04-01T14:01:15;9.80;99.90
7576;DHT22;3829;50.798;4.358;2023-04-01T14:12:06;9.60;99.90
7576;DHT22;3829;50.798;4.358;2023-04-01T14:15:01;9.60;99.90
7576;DHT22;3829;50.798;4.358;2023-04-01T14:23:38;9.50;99.90
7576;DHT22;3829;50.798;4.358;2023-04-01T14:26:19;9.60;99.90
7576;DHT22;3829;50.798;4.358;2023-04-01T14:29:15;9.60;99.90
7576;DHT22;3829;50.798;4.358;2023-04-01T14:32:03;9.60;99.90
7576;DHT22;3829;50.798;4.358;2023-04-01T14:51:13;10.10;99.90
7576;DHT22;3829;50.798;4.358;2023-04-01T14:53:54;9.90;99.90
7576;DHT22;3829;50.798;4.358;2023-04-01T14:56:51;9.90;99.90
7576;DHT22;3829;50.798;4.358;2023-04-01T14:59:28;9.80;99.90
7576;DHT22;3829;50.798;4.358;2023-04-01T15:02:26;9.70;99.90
7576;DHT22;3829;50.798;4.358;2023-04-01T15:05:07;9.80;99.90
7576;DHT22;3829;50.798;4.358;2023-04-01T15:19:14;9.80;99.90
7576;DHT22;3829;50.798;4.358;2023-04-01T15:22:01;9.80;99.90
7576;DHT22;3829;50.798;4.358;2023-04-01T15:27:05;9.70;99.90
7576;DHT22;3829;50.798;4.358;2023-04-01T15:32:29;9.50;99.90
7576;DHT22;3829;50.798;4.358;2023-04-01T15:38:10;9.40;99.90
7576;DHT22;3829;50.798;4.358;2023-04-01T15:41:00;9.50;99.90
7576;DHT22;3829;50.798;4.358;2023-04-01T15:43:37;9.60;99.90
7576;DHT22;3829;50.798;4.358;2023-04-01T15:51:47;9.50;99.90
7576;DHT22;3829;50.798;4.358;2023-04-01T16:10:48;9.40;99.90
7576;DHT22;3829;50.798;4.358;2023-04-01T16:22:08;9.10;99.90
7576;DHT22;3829;50.798;4.358;2023-04-01T16:27:27;9.00;99.90
7576;DHT22;3829;50.798;4.358;2023-04-01T16:30:22;9.00;99.90
7576;DHT22;3829;50.798;4.358;2023-04-01T16:33:21;9.00;99.90
7576;DHT22;3829;50.798;4.358;2023-04-01T16:39:06;9.10;99.90
7576;DHT22;3829;50.798;4.358;2023-04-01T16:41:35;9.00;99.90
7576;DHT22;3829;50.798;4.358;2023-04-01T16:44:18;9.10;99.90
7576;DHT22;3829;50.798;4.358;2023-04-01T16:46:54;9.00;99.90
7576;DHT22;3829;50.798;4.358;2023-04-01T16:49:25;9.10;99.90
7576;DHT22;3829;50.798;4.358;2023-04-01T16:55:11;9.00;99.90
7576;DHT22;3829;50.798;4.358;2023-04-01T16:57:56;9.00;99.90
7576;DHT22;3829;50.798;4.358;2023-04-01T17:00:29;9.00;99.90
7576;DHT22;3829;50.798;4.358;2023-04-01T17:11:18;9.00;99.90
7576;DHT22;3829;50.798;4.358;2023-04-01T17:22:07;9.10;99.90
7576;DHT22;3829;50.798;4.358;2023-04-01T17:24:47;9.10;99.90
7576;DHT22;3829;50.798;4.358;2023-04-01T17:35:40;9.20;99.90
7576;DHT22;3829;50.798;4.358;2023-04-01T17:41:47;9.10;99.90
7576;DHT22;3829;50.798;4.358;2023-04-01T17:44:02;9.10;99.90
7576;DHT22;3829;50.798;4.358;2023-04-01T17:49:32;9.00;99.90
7576;DHT22;3829;50.798;4.358;2023-04-01T17:54:51;9.20;99.90
7576;DHT22;3829;50.798;4.358;2023-04-01T17:57:30;9.20;99.90
7576;DHT22;3829;50.798;4.358;2023-04-01T18:00:24;9.10;99.90
7576;DHT22;3829;50.798;4.358;2023-04-01T18:08:47;9.00;99.90
7576;DHT22;3829;50.798;4.358;2023-04-01T18:19:57;9.00;99.90
7576;DHT22;3829;50.798;4.358;2023-04-01T18:22:43;9.20;99.90
7576;DHT22;3829;50.798;4.358;2023-04-01T18:28:46;9.30;99.90
7576;DHT22;3829;50.798;4.358;2023-04-01T18:31:14;9.30;99.90
7576;DHT22;3829;50.798;4.358;2023-04-01T18:33:56;9.20;99.90
7576;DHT22;3829;50.798;4.358;2023-04-01T18:36:44;9.30;99.90
7576;DHT22;3829;50.798;4.358;2023-04-01T18:39:17;9.40;99.90
7576;DHT22;3829;50.798;4.358;2023-04-01T18:44:42;9.50;99.90
7576;DHT22;3829;50.798;4.358;2023-04-01T18:52:54;9.50;99.90
7576;DHT22;3829;50.798;4.358;2023-04-01T18:55:40;9.50;99.90
7576;DHT22;3829;50.798;4.358;2023-04-01T18:58:42;9.30;99.90
7576;DHT22;3829;50.798;4.358;2023-04-01T19:01:33;9.30;99.90
7576;DHT22;3829;50.798;4.358;2023-04-01T19:09:19;9.20;99.90
7576;DHT22;3829;50.798;4.358;2023-04-01T19:11:59;9.20;99.90
7576;DHT22;3829;50.798;4.358;2023-04-01T19:14:53;9.20;99.90
7576;DHT22;3829;50.798;4.358;2023-04-01T19:20:24;9.00;99.90
7576;DHT22;3829;50.798;4.358;2023-04-01T19:25:49;9.00;99.90
7576;DHT22;3829;50.798;4.358;2023-04-01T19:45:24;9.10;99.90
7576;DHT22;3829;50.798;4.358;2023-04-01T19:48:14;9.10;99.90
7576;DHT22;3829;50.798;4.358;2023-04-01T19:58:53;9.10;99.90
7576;DHT22;3829;50.798;4.358;2023-04-01T20:01:41;9.10;99.90
7576;DHT22;3829;50.798;4.358;2023-04-01T20:04:32;9.10;99.90
7576;DHT22;3829;50.798;4.358;2023-04-01T20:07:10;9.00;99.90
7576;DHT22;3829;50.798;4.358;2023-04-01T20:09:48;9.00;99.90
7576;DHT22;3829;50.798;4.358;2023-04-01T20:18:00;9.10;99.90
7576;DHT22;3829;50.798;4.358;2023-04-01T20:20:28;9.10;99.90
7576;DHT22;3829;50.798;4.358;2023-04-01T20:25:57;9.10;99.90
7576;DHT22;3829;50.798;4.358;2023-04-01T20:31:42;9.00;99.90
7576;DHT22;3829;50.798;4.358;2023-04-01T20:40:14;9.10;99.90
7576;DHT22;3829;50.798;4.358;2023-04-01T20:46:11;9.10;99.90
7576;DHT22;3829;50.798;4.358;2023-04-01T20:51:32;9.10;99.90
7576;DHT22;3829;50.798;4.358;2023-04-01T20:54:11;9.10;99.90
7576;DHT22;3829;50.798;4.358;2023-04-01T20:57:20;9.10;99.90
7576;DHT22;3829;50.798;4.358;2023-04-01T20:59:59;9.20;99.90
7576;DHT22;3829;50.798;4.358;2023-04-01T21:19:36;9.40;99.90
7576;DHT22;3829;50.798;4.358;2023-04-01T21:22:24;9.20;99.90
7576;DHT22;3829;50.798;4.358;2023-04-01T21:25:17;9.30;99.90
7576;DHT22;3829;50.798;4.358;2023-04-01T21:28:11;9.10;99.90
7576;DHT22;3829;50.798;4.358;2023-04-01T21:31:00;9.10;99.90
7576;DHT22;3829;50.798;4.358;2023-04-01T21:33:54;9.20;99.90
7576;DHT22;3829;50.798;4.358;2023-04-01T21:36:50;9.30;99.90
7576;DHT22;3829;50.798;4.358;2023-04-01T21:45:04;9.30;99.90
7576;DHT22;3829;50.798;4.358;2023-04-01T21:50:44;9.40;99.90
7576;DHT22;3829;50.798;4.358;2023-04-01T22:04:51;9.40;99.90
7576;DHT22;3829;50.798;4.358;2023-04-01T22:07:21;9.40;99.90
7576;DHT22;3829;50.798;4.358;2023-04-01T22:15:44;9.40;99.90
7576;DHT22;3829;50.798;4.358;2023-04-01T22:21:16;9.50;99.90
7576;DHT22;3829;50.798;4.358;2023-04-01T22:24:16;9.40;99.90
7576;DHT22;3829;50.798;4.358;2023-04-01T22:26:50;9.50;99.90
7576;DHT22;3829;50.798;4.358;2023-04-01T22:32:14;9.40;99.90
7576;DHT22;3829;50.798;4.358;2023-04-01T22:40:25;9.30;99.90
7576;DHT22;3829;50.798;4.358;2023-04-01T22:43:04;9.30;99.90
7576;DHT22;3829;50.798;4.358;2023-04-01T22:46:01;9.30;99.90
7576;DHT22;3829;50.798;4.358;2023-04-01T22:51:07;9.30;99.90
7576;DHT22;3829;50.798;4.358;2023-04-01T22:56:16;9.20;99.90
7576;DHT22;3829;50.798;4.358;2023-04-01T22:58:51;9.20;99.90
7576;DHT22;3829;50.798;4.358;2023-04-01T23:01:24;9.20;99.90
7576;DHT22;3829;50.798;4.358;2023-04-01T23:03:52;9.20;99.90
7576;DHT22;3829;50.798;4.358;2023-04-01T23:06:26;9.20;99.90
7576;DHT22;3829;50.798;4.358;2023-04-01T23:09:12;9.20;99.90
7576;DHT22;3829;50.798;4.358;2023-04-01T23:12:05;9.20;99.90
7576;DHT22;3829;50.798;4.358;2023-04-01T23:14:34;9.10;99.90
7576;DHT22;3829;50.798;4.358;2023-04-01T23:17:09;9.20;99.90
7576;DHT22;3829;50.798;4.358;2023-04-01T23:20:01;9.10;99.90
7576;DHT22;3829;50.798;4.358;2023-04-01T23:33:22;9.10;99.90
7576;DHT22;3829;50.798;4.358;2023-04-01T23:38:17;8.90;99.90
7576;DHT22;3829;50.798;4.358;2023-04-01T23:40:43;9.00;99.90
7576;DHT22;3829;50.798;4.358;2023-04-01T23:43:22;9.00;99.90
7576;DHT22;3829;50.798;4.358;2023-04-01T23:45:48;9.00;99.90
7576;DHT22;3829;50.798;4.358;2023-04-01T23:48:15;9.00;99.90
7576;DHT22;3829;50.798;4.358;2023-04-01T23:50:42;8.90;99.90
7576;DHT22;3829;50.798;4.358;2023-04-01T23:53:21;8.90;99.90
7576;DHT22;3829;50.798;4.358;2023-04-01T23:55:49;8.80;99.90
7576;DHT22;3829;50.798;4.358;2023-04-01T23:58:40;8.90;99.90
